Time;durP1;ratioP1;P1;durP2;ratioP2;P2;SDS_P1;SDS_P2;PMS_P1;PMS_P2;Temp;Humidity;BMP_temperature;BMP_pressure;BME280_temperature;BME280_humidity;BME280_pressure;Samples;Min_cycle;Max_cycle;Signal;HPM_P1;HPM_P2
2022/04/06 00:01:24;;;;;;;;;;;19.00;43.70;;;;;;5059759;28;42831;-77
2022/04/06 00:03:50;;;;;;;;;;;19.00;43.10;;;;;;5046334;28;43342;-76
2022/04/06 00:06:15;;;;;;;;;;;19.00;43.20;;;;;;5046170;28;42943;-76
2022/04/06 00:08:41;;;;;;;;;;;19.00;43.10;;;;;;5064720;28;43334;-76
2022/04/06 00:11:07;;;;;;;;;;;19.00;43.10;;;;;;5064605;28;42932;-76
2022/04/06 00:13:32;;;;;;;;;;;19.00;43.20;;;;;;5065686;28;42979;-76
2022/04/06 00:15:58;;;;;;;;;;;19.00;43.20;;;;;;5065037;28;43133;-75
2022/04/06 00:18:23;;;;;;;;;;;19.50;43.40;;;;;;5064803;28;44173;-76
2022/04/06 00:20:49;;;;;;;;;;;19.00;43.20;;;;;;5064580;28;43148;-77
2022/04/06 00:23:15;;;;;;;;;;;19.10;43.30;;;;;;5064543;28;43298;-77
2022/04/06 00:25:41;;;;;;;;;;;19.00;43.20;;;;;;5064441;28;42990;-77
2022/04/06 00:28:07;;;;;;;;;;;19.00;43.30;;;;;;5065114;28;44087;-76
2022/04/06 00:30:33;;;;;;;;;;;19.10;43.30;;;;;;5064915;28;43079;-74
2022/04/06 00:32:58;;;;;;;;;;;19.00;43.30;;;;;;5063721;28;43335;-75
2022/04/06 00:35:31;;;;;;;;;;;19.00;43.30;;;;;;5063914;28;42923;-74
2022/04/06 00:37:57;;;;;;;;;;;19.00;43.30;;;;;;5064320;28;42870;-74
2022/04/06 00:40:23;;;;;;;;;;;19.10;43.40;;;;;;5063919;28;42943;-76
2022/04/06 00:42:49;;;;;;;;;;;19.10;43.40;;;;;;5065212;28;43424;-76
2022/04/06 00:45:15;;;;;;;;;;;19.10;43.40;;;;;;5064943;28;43089;-76
2022/04/06 00:47:41;;;;;;;;;;;19.10;43.50;;;;;;5064806;28;43493;-75
2022/04/06 00:50:07;;;;;;;;;;;19.10;43.50;;;;;;5065641;28;42825;-75
2022/04/06 00:52:33;;;;;;;;;;;19.10;43.50;;;;;;5065150;28;43477;-77
2022/04/06 00:54:59;;;;;;;;;;;19.10;43.50;;;;;;5064381;28;43511;-79
2022/04/06 00:57:25;;;;;;;;;;;19.10;43.50;;;;;;5064234;28;43484;-79
2022/04/06 00:59:51;;;;;;;;;;;19.10;43.50;;;;;;5045944;28;42867;-76
2022/04/06 01:02:16;;;;;;;;;;;19.10;43.60;;;;;;5064330;28;42883;-76
2022/04/06 01:04:42;;;;;;;;;;;19.10;43.60;;;;;;5068347;28;42853;-78
2022/04/06 01:07:08;;;;;;;;;;;19.10;43.60;;;;;;5068563;28;42913;-77
2022/04/06 01:09:34;;;;;;;;;;;19.10;43.60;;;;;;5068226;28;42970;-77
2022/04/06 01:11:59;;;;;;;;;;;19.10;43.70;;;;;;5050307;28;44731;-79
2022/04/06 01:14:25;;;;;;;;;;;19.10;43.70;;;;;;5050737;28;42959;-76
2022/04/06 01:16:58;;;;;;;;;;;19.10;43.70;;;;;;5050214;28;43197;-78
2022/04/06 01:19:28;;;;;;;;;;;19.10;43.70;;;;;;5068760;28;42841;-76
2022/04/06 01:21:54;;;;;;;;;;;19.10;43.70;;;;;;5049943;28;44495;-76
2022/04/06 01:24:20;;;;;;;;;;;19.10;43.80;;;;;;5066352;28;42848;-77
2022/04/06 01:26:45;;;;;;;;;;;19.10;43.80;;;;;;5048047;28;45384;-76
2022/04/06 01:29:11;;;;;;;;;;;19.10;44.40;;;;;;5066577;28;43048;-77
2022/04/06 01:31:36;;;;;;;;;;;19.10;43.80;;;;;;5066451;28;43534;-76
2022/04/06 01:34:02;;;;;;;;;;;19.10;43.90;;;;;;5067709;28;43145;-76
2022/04/06 01:36:27;;;;;;;;;;;19.10;43.90;;;;;;5066955;28;43963;-78
2022/04/06 01:38:53;;;;;;;;;;;19.10;43.90;;;;;;5066070;28;42959;-76
2022/04/06 01:41:18;;;;;;;;;;;19.10;43.90;;;;;;5066702;28;43495;-78
2022/04/06 01:43:44;;;;;;;;;;;19.10;43.90;;;;;;5066587;28;43146;-77
2022/04/06 01:46:10;;;;;;;;;;;19.10;44.00;;;;;;5066352;28;43440;-76
2022/04/06 01:52:11;;;;;;;;;;;19.10;44.00;;;;;;5067238;28;42883;-77
2022/04/06 01:54:19;;;;;;;;;;;19.10;44.00;;;;;;5020325;28;43619;-79
2022/04/06 01:56:44;;;;;;;;;;;19.10;44.00;;;;;;5067940;28;43557;-78
2022/04/06 01:59:10;;;;;;;;;;;19.10;44.10;;;;;;5067914;28;42903;-78
2022/04/06 02:01:36;;;;;;;;;;;19.10;44.10;;;;;;5068852;28;43065;-79
2022/04/06 02:04:06;;;;;;;;;;;19.10;44.10;;;;;;5068142;28;42956;-79
2022/04/06 02:06:32;;;;;;;;;;;19.10;44.10;;;;;;5069497;28;42816;-78
2022/04/06 02:08:57;;;;;;;;;;;19.10;44.20;;;;;;5077898;28;43176;-77
2022/04/06 02:11:23;;;;;;;;;;;19.10;44.30;;;;;;5072933;28;42908;-76
2022/04/06 02:13:48;;;;;;;;;;;19.10;44.60;;;;;;5066834;28;42891;-77
2022/04/06 02:16:14;;;;;;;;;;;19.10;45.00;;;;;;5067791;28;44023;-78
2022/04/06 02:18:39;;;;;;;;;;;19.10;44.80;;;;;;5066758;28;42911;-78
2022/04/06 02:21:05;;;;;;;;;;;19.10;44.30;;;;;;5067624;28;43690;-76
2022/04/06 02:23:30;;;;;;;;;;;19.10;44.50;;;;;;5066888;28;42846;-79
2022/04/06 02:25:56;;;;;;;;;;;19.20;44.40;;;;;;5048940;28;43569;-79
2022/04/06 02:28:21;;;;;;;;;;;19.10;44.40;;;;;;5066462;28;42914;-80
2022/04/06 02:30:47;;;;;;;;;;;19.10;44.40;;;;;;5048983;28;44925;-79
2022/04/06 02:33:12;;;;;;;;;;;19.10;44.40;;;;;;5066045;28;42917;-79
2022/04/06 02:35:38;;;;;;;;;;;19.10;44.40;;;;;;5066556;28;43542;-78
2022/04/06 02:38:03;;;;;;;;;;;19.10;44.40;;;;;;5066860;28;42832;-80
2022/04/06 02:40:32;;;;;;;;;;;19.10;44.40;;;;;;5067396;28;43425;-79
2022/04/06 02:42:57;;;;;;;;;;;19.20;44.50;;;;;;5066313;28;42810;-80
2022/04/06 02:45:23;;;;;;;;;;;19.10;44.50;;;;;;5067213;28;43184;-79
2022/04/06 02:47:49;;;;;;;;;;;19.10;44.50;;;;;;5066447;28;42993;-80
2022/04/06 02:50:14;;;;;;;;;;;19.20;44.50;;;;;;5066692;28;44408;-79
2022/04/06 02:52:40;;;;;;;;;;;19.20;44.60;;;;;;5066277;28;43213;-80
2022/04/06 02:55:08;;;;;;;;;;;19.10;44.50;;;;;;5064956;28;43975;-79
2022/04/06 02:57:34;;;;;;;;;;;19.20;44.60;;;;;;5066662;28;42781;-79
2022/04/06 02:59:59;;;;;;;;;;;19.20;44.70;;;;;;5066460;28;43082;-80
2022/04/06 03:02:25;;;;;;;;;;;19.10;44.60;;;;;;5066284;28;42911;-79
2022/04/06 03:04:50;;;;;;;;;;;19.10;44.60;;;;;;5066517;28;42771;-80
2022/04/06 03:07:19;;;;;;;;;;;19.20;44.70;;;;;;5065970;28;42875;-77
2022/04/06 03:09:45;;;;;;;;;;;19.10;44.70;;;;;;5066233;28;43741;-79
2022/04/06 03:12:11;;;;;;;;;;;19.20;44.80;;;;;;5065375;28;43080;-76
2022/04/06 03:14:37;;;;;;;;;;;19.10;44.70;;;;;;5066319;28;43595;-79
2022/04/06 03:17:03;;;;;;;;;;;19.20;44.80;;;;;;5066222;28;43124;-78
2022/04/06 03:19:28;;;;;;;;;;;19.20;44.80;;;;;;5065499;28;43046;-78
2022/04/06 03:21:54;;;;;;;;;;;19.20;44.80;;;;;;5065991;28;43066;-76
2022/04/06 03:24:19;;;;;;;;;;;19.20;44.80;;;;;;5066016;28;42914;-76
2022/04/06 03:26:45;;;;;;;;;;;19.20;44.80;;;;;;5064312;28;43012;-77
2022/04/06 03:29:10;;;;;;;;;;;19.20;44.80;;;;;;5066565;28;43002;-76
2022/04/06 03:31:37;;;;;;;;;;;19.10;44.80;;;;;;5065590;28;43044;-76
2022/04/06 03:34:03;;;;;;;;;;;19.10;44.80;;;;;;5065476;28;43768;-77
2022/04/06 03:36:28;;;;;;;;;;;19.20;44.90;;;;;;5065442;28;43061;-75
2022/04/06 03:38:54;;;;;;;;;;;19.20;44.90;;;;;;5065488;28;43514;-75
2022/04/06 03:41:20;;;;;;;;;;;19.20;44.90;;;;;;5065586;28;42950;-77
2022/04/06 03:43:45;;;;;;;;;;;19.20;44.90;;;;;;5945893;22;43716;-78
2022/04/06 03:46:11;;;;;;;;;;;19.20;45.00;;;;;;5085914;28;43079;-78
2022/04/06 03:48:36;;;;;;;;;;;19.20;45.50;;;;;;5085756;28;42957;-79
2022/04/06 03:51:02;;;;;;;;;;;19.10;44.90;;;;;;5086181;28;42917;-78
2022/04/06 03:53:27;;;;;;;;;;;19.20;45.00;;;;;;5087021;27;43000;-78
2022/04/06 03:55:53;;;;;;;;;;;19.20;45.00;;;;;;5085587;28;42970;-76
2022/04/06 03:58:18;;;;;;;;;;;19.20;45.00;;;;;;5084512;28;43073;-77
2022/04/06 04:00:44;;;;;;;;;;;19.20;45.30;;;;;;5084728;28;42967;-78
2022/04/06 04:03:09;;;;;;;;;;;19.20;45.10;;;;;;5086420;28;43265;-77
2022/04/06 04:05:35;;;;;;;;;;;18.10;44.50;;;;;;5086226;28;42953;-78
2022/04/06 04:08:00;;;;;;;;;;;19.20;45.10;;;;;;5084371;28;42893;-79
2022/04/06 04:10:26;;;;;;;;;;;19.20;45.10;;;;;;5085571;28;42826;-77
2022/04/06 04:12:52;;;;;;;;;;;19.20;45.20;;;;;;5085295;27;43308;-80
2022/04/06 04:15:17;;;;;;;;;;;19.20;45.20;;;;;;5086173;28;43220;-78
2022/04/06 04:17:42;;;;;;;;;;;19.20;45.20;;;;;;5086236;28;42925;-78
2022/04/06 04:20:10;;;;;;;;;;;19.20;45.20;;;;;;5085257;27;43359;-77
2022/04/06 04:22:36;;;;;;;;;;;19.20;45.20;;;;;;5084638;28;43434;-77
2022/04/06 04:25:01;;;;;;;;;;;19.20;45.30;;;;;;5084698;28;43068;-77
2022/04/06 04:27:27;;;;;;;;;;;19.20;45.30;;;;;;5086329;27;42989;-78
2022/04/06 04:29:52;;;;;;;;;;;19.20;45.30;;;;;;5085333;28;42848;-77
2022/04/06 04:32:18;;;;;;;;;;;19.40;45.40;;;;;;5084711;28;43581;-78
2022/04/06 04:37:47;;;;;;;;;;;18.80;45.20;;;;;;5091561;27;43024;-79
2022/04/06 04:40:12;;;;;;;;;;;19.10;46.00;;;;;;5067865;28;43284;-78
2022/04/06 04:42:38;;;;;;;;;;;19.10;45.70;;;;;;5099443;27;43317;-80
2022/04/06 04:45:04;;;;;;;;;;;19.20;45.40;;;;;;5100833;27;43167;-80
2022/04/06 04:47:30;;;;;;;;;;;19.20;45.50;;;;;;5102334;27;43588;-79
2022/04/06 04:49:56;;;;;;;;;;;19.20;45.50;;;;;;5114450;27;43059;-80
2022/04/06 04:52:22;;;;;;;;;;;19.20;45.50;;;;;;5097824;27;42924;-82
2022/04/06 04:57:23;;;;;;;;;;;19.20;45.50;;;;;;5229774;22;43202;-80
2022/04/06 04:59:52;;;;;;;;;;;19.20;45.50;;;;;;5064758;28;43125;-80
2022/04/06 05:02:18;;;;;;;;;;;19.10;45.50;;;;;;5064734;28;42888;-81
2022/04/06 05:04:43;;;;;;;;;;;19.20;45.60;;;;;;5064927;28;42858;-84
2022/04/06 05:07:10;;;;;;;;;;;19.20;45.80;;;;;;5063673;28;43141;-81
2022/04/06 05:09:35;;;;;;;;;;;19.20;45.60;;;;;;5063617;28;42939;-82
2022/04/06 05:12:01;;;;;;;;;;;19.20;45.60;;;;;;5064388;28;42861;-80
2022/04/06 05:14:37;;;;;;;;;;;19.20;45.60;;;;;;5085988;22;43543;-84
2022/04/06 05:20:06;;;;;;;;;;;18.80;45.50;;;;;;5121225;27;42813;-83
2022/04/06 05:22:32;;;;;;;;;;;19.10;45.80;;;;;;5124884;27;43382;-83
2022/04/06 05:24:59;;;;;;;;;;;19.20;45.70;;;;;;5125762;27;42953;-82
2022/04/06 05:27:25;;;;;;;;;;;19.20;45.70;;;;;;5124821;27;43408;-83
2022/04/06 05:29:50;;;;;;;;;;;19.20;45.70;;;;;;5123792;27;42904;-85
2022/04/06 05:32:16;;;;;;;;;;;19.20;45.70;;;;;;5123995;27;44562;-84
2022/04/06 05:34:41;;;;;;;;;;;19.20;45.80;;;;;;5124836;27;42918;-83
2022/04/06 05:37:10;;;;;;;;;;;19.20;45.80;;;;;;5124335;27;43865;-84
2022/04/06 05:39:35;;;;;;;;;;;19.50;46.00;;;;;;5125092;27;42939;-81
2022/04/06 05:42:01;;;;;;;;;;;19.20;45.80;;;;;;5124386;27;44063;-84
2022/04/06 05:44:26;;;;;;;;;;;19.20;45.80;;;;;;5123923;27;43002;-85
2022/04/06 05:46:52;;;;;;;;;;;19.20;45.90;;;;;;5124560;27;43710;-84
2022/04/06 05:49:17;;;;;;;;;;;19.20;45.90;;;;;;5126344;27;42920;-85
2022/04/06 05:51:45;;;;;;;;;;;19.10;45.80;;;;;;5128578;27;42929;-84
2022/04/06 05:54:11;;;;;;;;;;;19.20;46.10;;;;;;5128124;27;42782;-82
2022/04/06 05:56:37;;;;;;;;;;;19.10;46.00;;;;;;5128642;27;43522;-83
2022/04/06 05:59:02;;;;;;;;;;;19.20;45.90;;;;;;5128786;27;43320;-85
2022/04/06 06:01:28;;;;;;;;;;;19.20;45.90;;;;;;5123536;27;42920;-84
2022/04/06 06:03:53;;;;;;;;;;;19.20;46.40;;;;;;5115829;27;43024;-85
2022/04/06 06:06:19;;;;;;;;;;;19.20;46.00;;;;;;5133914;27;42988;-83
2022/04/06 06:08:46;;;;;;;;;;;19.20;46.00;;;;;;5116575;27;42877;-84
2022/04/06 06:11:11;;;;;;;;;;;19.20;46.00;;;;;;5120753;27;42941;-85
2022/04/06 06:13:37;;;;;;;;;;;19.20;46.10;;;;;;5132105;27;43021;-85
2022/04/06 06:16:04;;;;;;;;;;;19.20;46.10;;;;;;5116355;27;42912;-84
2022/04/06 06:18:29;;;;;;;;;;;19.20;46.10;;;;;;5116016;27;43052;-85
2022/04/06 06:20:57;;;;;;;;;;;19.20;46.10;;;;;;5114139;27;43003;-84
2022/04/06 06:23:22;;;;;;;;;;;19.20;46.10;;;;;;5118282;27;42950;-84
2022/04/06 06:25:48;;;;;;;;;;;19.20;46.10;;;;;;5113755;27;43562;-80
2022/04/06 06:28:13;;;;;;;;;;;19.20;46.10;;;;;;5113749;27;42971;-81
2022/04/06 06:30:39;;;;;;;;;;;19.20;46.10;;;;;;5117239;27;42998;-80
2022/04/06 06:33:05;;;;;;;;;;;19.20;46.20;;;;;;5117039;27;43374;-79
2022/04/06 06:35:30;;;;;;;;;;;19.20;46.10;;;;;;5120462;27;43744;-80
2022/04/06 06:37:56;;;;;;;;;;;19.20;46.10;;;;;;5118166;27;42976;-80
2022/04/06 06:40:23;;;;;;;;;;;19.20;46.10;;;;;;5117963;27;44108;-79
2022/04/06 06:42:49;;;;;;;;;;;19.20;46.10;;;;;;5118652;27;42967;-80
2022/04/06 06:45:14;;;;;;;;;;;19.20;46.10;;;;;;5116991;27;43725;-79
2022/04/06 06:47:40;;;;;;;;;;;19.20;46.10;;;;;;5120698;27;43202;-79
2022/04/06 06:50:06;;;;;;;;;;;19.20;46.10;;;;;;5118221;27;43022;-79
2022/04/06 06:52:34;;;;;;;;;;;19.20;46.00;;;;;;5124178;27;43125;-78
2022/04/06 06:55:00;;;;;;;;;;;19.20;46.00;;;;;;5126954;27;42998;-79
2022/04/06 06:57:26;;;;;;;;;;;19.20;46.00;;;;;;5126418;27;43093;-79
2022/04/06 06:59:51;;;;;;;;;;;19.10;46.00;;;;;;5126513;27;42980;-79
2022/04/06 07:02:17;;;;;;;;;;;19.10;46.40;;;;;;5127189;27;43016;-79
2022/04/06 07:04:42;;;;;;;;;;;19.10;46.00;;;;;;5124493;27;43584;-79
2022/04/06 07:07:08;;;;;;;;;;;19.10;45.90;;;;;;5125909;27;42870;-79
2022/04/06 07:09:33;;;;;;;;;;;19.10;45.90;;;;;;5122351;27;42894;-80
2022/04/06 07:11:59;;;;;;;;;;;19.10;45.90;;;;;;5115722;27;43084;-80
2022/04/06 07:14:26;;;;;;;;;;;19.10;45.90;;;;;;5116492;27;43573;-79
2022/04/06 07:16:52;;;;;;;;;;;19.10;45.90;;;;;;5120227;27;43060;-79
2022/04/06 07:19:18;;;;;;;;;;;19.10;45.90;;;;;;5109601;27;44370;-79
2022/04/06 07:21:44;;;;;;;;;;;19.10;45.90;;;;;;5113480;27;43106;-79
2022/04/06 07:24:09;;;;;;;;;;;19.10;45.90;;;;;;5118619;27;43034;-79
2022/04/06 07:26:35;;;;;;;;;;;19.10;46.00;;;;;;5107821;27;43199;-79
2022/04/06 07:29:00;;;;;;;;;;;19.10;45.90;;;;;;5116583;27;44407;-80
2022/04/06 07:31:26;;;;;;;;;;;19.10;45.80;;;;;;5123522;27;42813;-79
2022/04/06 07:33:51;;;;;;;;;;;19.10;45.80;;;;;;5116001;27;42915;-78
2022/04/06 07:36:17;;;;;;;;;;;19.10;45.80;;;;;;5104058;27;43022;-79
2022/04/06 07:38:43;;;;;;;;;;;19.10;45.80;;;;;;5086752;27;43106;-78
2022/04/06 07:41:08;;;;;;;;;;;19.10;45.80;;;;;;5108617;27;42999;-79
2022/04/06 07:43:34;;;;;;;;;;;19.10;45.80;;;;;;5119621;27;43518;-79
2022/04/06 07:45:59;;;;;;;;;;;19.10;45.80;;;;;;5124738;27;42973;-79
2022/04/06 07:48:27;;;;;;;;;;;19.10;45.80;;;;;;5123591;27;43597;-79
2022/04/06 07:50:56;;;;;;;;;;;19.10;45.80;;;;;;5120916;27;44122;-78
2022/04/06 07:53:22;;;;;;;;;;;19.10;45.80;;;;;;5125521;27;43647;-80
2022/04/06 07:55:49;;;;;;;;;;;19.10;45.80;;;;;;5128128;27;43004;-79
2022/04/06 07:58:15;;;;;;;;;;;19.10;45.80;;;;;;5127052;27;42951;-79
2022/04/06 08:00:43;;;;;;;;;;;19.10;45.80;;;;;;5129222;27;59675;-80
2022/04/06 08:03:08;;;;;;;;;;;19.10;45.80;;;;;;5119543;27;43008;-79
2022/04/06 08:05:35;;;;;;;;;;;19.00;45.70;;;;;;5120113;27;42960;-79
2022/04/06 08:08:01;;;;;;;;;;;19.10;45.70;;;;;;5119468;27;43237;-78
2022/04/06 08:10:30;;;;;;;;;;;19.10;45.70;;;;;;5119894;27;43000;-78
2022/04/06 08:12:55;;;;;;;;;;;19.00;45.70;;;;;;5120582;27;43049;-79
2022/04/06 08:15:21;;;;;;;;;;;19.00;45.70;;;;;;5119680;27;43032;-79
2022/04/06 08:17:47;;;;;;;;;;;19.00;45.70;;;;;;5121439;27;42820;-79
2022/04/06 08:20:14;;;;;;;;;;;19.00;45.60;;;;;;5122315;27;43045;-78
2022/04/06 08:22:41;;;;;;;;;;;20.20;46.60;;;;;;5125219;27;44494;-78
2022/04/06 08:25:07;;;;;;;;;;;19.00;45.60;;;;;;5127362;27;42843;-79
2022/04/06 08:27:36;;;;;;;;;;;19.10;45.70;;;;;;5123202;27;43710;-78
2022/04/06 08:30:03;;;;;;;;;;;19.00;45.60;;;;;;5118458;27;42933;-78
2022/04/06 08:32:28;;;;;;;;;;;19.00;45.70;;;;;;5122280;27;42911;-78
2022/04/06 08:34:54;;;;;;;;;;;19.10;45.70;;;;;;5116231;27;43073;-78
2022/04/06 08:37:19;;;;;;;;;;;19.00;45.70;;;;;;5117909;27;43632;-78
2022/04/06 08:39:45;;;;;;;;;;;19.00;45.70;;;;;;5119456;27;43049;-78
2022/04/06 08:42:11;;;;;;;;;;;19.00;45.70;;;;;;5120137;27;43044;-80
2022/04/06 08:44:36;;;;;;;;;;;19.00;45.80;;;;;;5120960;27;43025;-82
2022/04/06 08:47:03;;;;;;;;;;;19.00;45.80;;;;;;5120077;27;44178;-80
2022/04/06 08:49:29;;;;;;;;;;;19.00;45.80;;;;;;5116764;27;43280;-81
2022/04/06 08:51:55;;;;;;;;;;;19.10;45.80;;;;;;5117951;27;43018;-81
2022/04/06 08:54:22;;;;;;;;;;;19.00;45.80;;;;;;5116631;27;42995;-82
2022/04/06 08:56:48;;;;;;;;;;;19.10;45.80;;;;;;5117796;27;43390;-82
2022/04/06 08:59:13;;;;;;;;;;;19.10;45.80;;;;;;5114911;27;43214;-81
2022/04/06 09:01:39;;;;;;;;;;;19.10;45.90;;;;;;5117702;27;42770;-80
2022/04/06 09:04:04;;;;;;;;;;;19.10;45.90;;;;;;5117586;27;43057;-80
2022/04/06 09:06:38;;;;;;;;;;;19.10;45.80;;;;;;5123896;27;44031;-81
2022/04/06 09:09:03;;;;;;;;;;;19.10;45.80;;;;;;5127223;27;42780;-82
2022/04/06 09:11:30;;;;;;;;;;;19.10;45.80;;;;;;5125445;27;43044;-81
2022/04/06 09:14:00;;;;;;;;;;;21.40;47.60;;;;;;5126093;27;42908;-82
2022/04/06 09:16:28;;;;;;;;;;;19.10;45.80;;;;;;5126327;27;43390;-80
2022/04/06 09:18:54;;;;;;;;;;;19.10;45.80;;;;;;5138604;27;43066;-81
2022/04/06 09:21:20;;;;;;;;;;;19.00;45.70;;;;;;5131707;27;42871;-81
2022/04/06 09:23:48;;;;;;;;;;;19.10;45.70;;;;;;5125157;27;43015;-82
2022/04/06 09:26:17;;;;;;;;;;;19.00;45.70;;;;;;5129744;27;43450;-81
2022/04/06 09:28:44;;;;;;;;;;;19.00;45.70;;;;;;5130552;27;42849;-82
2022/04/06 09:31:17;;;;;;;;;;;19.10;45.70;;;;;;5147307;27;42934;-76
2022/04/06 09:33:55;;;;;;;;;;;19.10;46.10;;;;;;5150068;27;43037;-77
2022/04/06 09:36:20;;;;;;;;;;;19.00;46.00;;;;;;5149421;27;43227;-76
2022/04/06 09:38:51;;;;;;;;;;;19.10;45.80;;;;;;5152028;27;42907;-77
2022/04/06 09:41:18;;;;;;;;;;;19.10;45.80;;;;;;5151471;27;43568;-77
2022/04/06 09:43:45;;;;;;;;;;;19.10;45.70;;;;;;5150977;27;42962;-77
2022/04/06 09:49:09;;;;;;;;;;;19.10;45.80;;;;;;5151778;27;42883;-77
2022/04/06 09:51:35;;;;;;;;;;;19.00;45.70;;;;;;5150431;27;42981;-77
2022/04/06 09:54:04;;;;;;;;;;;19.10;45.70;;;;;;5151780;27;43199;-77
2022/04/06 09:56:31;;;;;;;;;;;19.10;45.70;;;;;;5151533;27;42869;-76
2022/04/06 09:58:57;;;;;;;;;;;19.10;45.70;;;;;;5150729;27;42773;-76
2022/04/06 10:01:23;;;;;;;;;;;19.00;45.70;;;;;;5150605;27;42886;-75
2022/04/06 10:03:50;;;;;;;;;;;19.10;45.70;;;;;;5151306;27;42868;-77
2022/04/06 10:06:16;;;;;;;;;;;19.10;45.70;;;;;;5150396;27;42912;-77
2022/04/06 10:08:42;;;;;;;;;;;19.00;45.70;;;;;;5150725;27;42912;-77
2022/04/06 10:11:08;;;;;;;;;;;19.00;45.70;;;;;;5150773;27;43054;-78
2022/04/06 10:13:33;;;;;;;;;;;19.10;45.70;;;;;;5154502;27;42895;-78
2022/04/06 10:15:59;;;;;;;;;;;20.40;46.40;;;;;;5157721;27;42945;-78
2022/04/06 10:18:30;;;;;;;;;;;19.10;45.70;;;;;;5150648;27;42995;-77
2022/04/06 10:21:02;;;;;;;;;;;19.10;45.70;;;;;;5149403;27;42957;-76
2022/04/06 10:23:30;;;;;;;;;;;19.10;45.70;;;;;;5150396;27;43185;-77
2022/04/06 10:26:28;;;;;;;;;;;19.00;45.70;;;;;;5150784;27;42880;-78
2022/04/06 10:28:54;;;;;;;;;;;19.10;45.70;;;;;;5124583;27;42956;-77
2022/04/06 10:31:22;;;;;;;;;;;19.10;45.70;;;;;;5149273;27;43252;-76
2022/04/06 10:33:48;;;;;;;;;;;19.10;45.70;;;;;;5149656;27;43083;-78
2022/04/06 10:36:18;;;;;;;;;;;19.10;45.70;;;;;;5146992;27;42990;-78
2022/04/06 10:39:10;;;;;;;;;;;19.10;45.70;;;;;;5150132;27;42965;-78
2022/04/06 10:41:39;;;;;;;;;;;19.00;45.70;;;;;;5147739;27;42925;-76
2022/04/06 10:44:04;;;;;;;;;;;19.00;45.60;;;;;;5149829;27;42940;-78
2022/04/06 10:46:34;;;;;;;;;;;19.00;45.60;;;;;;5150477;27;43511;-77
2022/04/06 10:49:05;;;;;;;;;;;19.10;45.70;;;;;;5150025;27;43028;-77
2022/04/06 10:51:35;;;;;;;;;;;19.10;45.70;;;;;;5149789;27;42890;-77
2022/04/06 10:54:12;;;;;;;;;;;19.10;45.60;;;;;;5149990;27;42908;-77
2022/04/06 10:56:50;;;;;;;;;;;19.10;45.60;;;;;;5148829;27;43754;-80
2022/04/06 10:59:23;;;;;;;;;;;19.00;45.60;;;;;;5126360;27;43682;-78
2022/04/06 11:01:49;;;;;;;;;;;19.10;45.60;;;;;;5124329;27;43384;-78
2022/04/06 11:04:16;;;;;;;;;;;19.00;45.50;;;;;;5122991;27;42738;-78
2022/04/06 11:06:44;;;;;;;;;;;19.10;45.50;;;;;;5113396;27;42912;-77
2022/04/06 11:12:25;;;;;;;;;;;19.00;45.40;;;;;;5112568;27;42922;-80
2022/04/06 11:15:00;;;;;;;;;;;19.00;45.40;;;;;;5114873;27;42949;-80
2022/04/06 11:17:34;;;;;;;;;;;19.00;45.40;;;;;;5114068;27;42995;-79
2022/04/06 11:20:30;;;;;;;;;;;19.00;45.40;;;;;;5113410;27;43285;-80
2022/04/06 11:22:56;;;;;;;;;;;19.00;45.40;;;;;;5115791;27;42931;-80
2022/04/06 11:25:23;;;;;;;;;;;19.00;45.40;;;;;;5114654;27;42966;-81
2022/04/06 11:27:49;;;;;;;;;;;19.00;45.40;;;;;;5114499;27;44858;-79
2022/04/06 11:30:16;;;;;;;;;;;19.00;45.40;;;;;;5115722;27;42915;-79
2022/04/06 11:33:02;;;;;;;;;;;19.00;45.40;;;;;;5120488;27;43573;-79
2022/04/06 11:35:34;;;;;;;;;;;19.00;45.40;;;;;;5116575;27;43064;-78
2022/04/06 11:38:00;;;;;;;;;;;19.10;45.40;;;;;;5114267;27;44004;-80
2022/04/06 11:40:27;;;;;;;;;;;19.00;45.40;;;;;;5106777;27;42775;-77
2022/04/06 11:42:54;;;;;;;;;;;19.00;45.50;;;;;;5116602;27;45675;-79
2022/04/06 11:45:24;;;;;;;;;;;19.00;45.60;;;;;;5113659;27;43126;-78
2022/04/06 11:48:18;;;;;;;;;;;19.00;45.40;;;;;;5112800;27;43751;-78
2022/04/06 11:50:44;;;;;;;;;;;19.30;45.50;;;;;;5116142;27;42973;-78
2022/04/06 11:53:15;;;;;;;;;;;19.00;45.40;;;;;;5113195;27;44548;-79
2022/04/06 11:55:47;;;;;;;;;;;19.00;45.40;;;;;;5115349;27;43004;-80
2022/04/06 11:58:32;;;;;;;;;;;19.00;45.30;;;;;;5112676;27;44117;-81
2022/04/06 12:01:00;;;;;;;;;;;19.00;45.30;;;;;;5115797;27;43036;-80
2022/04/06 12:03:30;;;;;;;;;;;19.00;45.60;;;;;;5112540;27;45290;-77
2022/04/06 12:05:55;;;;;;;;;;;17.60;44.60;;;;;;5114435;27;43302;-79
2022/04/06 12:08:31;;;;;;;;;;;19.00;45.30;;;;;;5124571;27;43821;-80
2022/04/06 12:10:57;;;;;;;;;;;19.20;45.70;;;;;;5109081;27;43524;-80
2022/04/06 12:13:25;;;;;;;;;;;19.00;45.50;;;;;;5112173;27;44162;-79
2022/04/06 12:15:50;;;;;;;;;;;19.00;45.40;;;;;;5116223;27;43076;-79
2022/04/06 12:18:17;;;;;;;;;;;19.00;45.50;;;;;;5114360;27;42998;-79
2022/04/06 12:20:43;;;;;;;;;;;19.00;45.40;;;;;;5119101;27;43087;-81
2022/04/06 12:23:08;;;;;;;;;;;19.00;45.30;;;;;;5114455;27;43470;-81
2022/04/06 12:25:35;;;;;;;;;;;19.00;45.40;;;;;;5122450;27;42888;-80
2022/04/06 12:28:21;;;;;;;;;;;19.00;45.40;;;;;;5114526;27;44162;-79
2022/04/06 12:30:52;;;;;;;;;;;19.00;45.40;;;;;;5115001;27;43015;-82
2022/04/06 12:33:39;;;;;;;;;;;20.60;46.20;;;;;;5125451;27;43063;-81
2022/04/06 12:36:08;;;;;;;;;;;19.00;45.40;;;;;;5127600;27;42913;-79
2022/04/06 12:38:34;;;;;;;;;;;19.10;45.40;;;;;;5130722;27;43106;-79
2022/04/06 12:41:03;;;;;;;;;;;19.10;45.50;;;;;;5125685;27;42947;-81
2022/04/06 12:43:29;;;;;;;;;;;19.00;45.40;;;;;;5131321;27;44364;-80
2022/04/06 12:45:55;;;;;;;;;;;19.00;45.40;;;;;;5125723;27;42931;-80
2022/04/06 12:48:20;;;;;;;;;;;18.70;46.00;;;;;;5113191;27;43949;-79
2022/04/06 12:50:46;;;;;;;;;;;19.10;45.50;;;;;;5107775;27;42917;-79
2022/04/06 12:53:12;;;;;;;;;;;19.10;45.50;;;;;;5119361;27;43511;-78
2022/04/06 12:55:38;;;;;;;;;;;19.00;45.40;;;;;;5130812;27;42978;-80
2022/04/06 12:58:17;;;;;;;;;;;19.00;45.40;;;;;;5139250;27;43368;-79
2022/04/06 13:00:43;;;;;;;;;;;19.10;46.00;;;;;;5130569;27;43100;-79
2022/04/06 13:03:09;;;;;;;;;;;19.00;45.40;;;;;;5141063;27;44050;-79
2022/04/06 13:05:34;;;;;;;;;;;19.00;45.40;;;;;;5138731;27;43195;-79
2022/04/06 13:08:02;;;;;;;;;;;19.00;45.40;;;;;;5134277;27;43732;-80
2022/04/06 13:10:34;;;;;;;;;;;19.10;45.50;;;;;;5120586;27;43015;-79
2022/04/06 13:13:00;;;;;;;;;;;19.10;45.50;;;;;;5122116;27;43232;-79
2022/04/06 13:15:26;;;;;;;;;;;19.10;45.50;;;;;;5109354;27;43150;-77
2022/04/06 13:17:52;;;;;;;;;;;19.10;45.50;;;;;;5110196;27;43203;-77
2022/04/06 13:20:18;;;;;;;;;;;19.10;45.50;;;;;;5111506;27;42904;-77
2022/04/06 13:22:45;;;;;;;;;;;19.10;45.50;;;;;;5111972;27;43653;-77
2022/04/06 13:25:11;;;;;;;;;;;19.10;45.50;;;;;;5111482;27;42986;-78
2022/04/06 13:27:37;;;;;;;;;;;19.10;45.50;;;;;;5112318;27;42918;-78
2022/04/06 13:30:03;;;;;;;;;;;19.10;45.60;;;;;;5112227;27;42967;-77
2022/04/06 13:32:29;;;;;;;;;;;19.10;45.60;;;;;;5111535;27;42767;-78
2022/04/06 13:34:54;;;;;;;;;;;19.10;45.60;;;;;;5112026;27;42825;-77
2022/04/06 13:37:20;;;;;;;;;;;19.10;45.60;;;;;;5112349;27;43142;-77
2022/04/06 13:39:46;;;;;;;;;;;19.10;45.60;;;;;;5111725;27;42776;-77
2022/04/06 13:42:16;;;;;;;;;;;19.10;45.60;;;;;;5110609;27;43789;-78
2022/04/06 13:44:42;;;;;;;;;;;19.10;46.10;;;;;;5110627;27;42866;-78
2022/04/06 13:47:16;;;;;;;;;;;19.10;45.60;;;;;;5111377;27;44568;-76
2022/04/06 13:49:42;;;;;;;;;;;19.10;45.60;;;;;;5121710;27;44494;-80
2022/04/06 13:52:07;;;;;;;;;;;19.10;45.80;;;;;;5131660;27;43603;-78
2022/04/06 13:54:33;;;;;;;;;;;19.10;45.70;;;;;;5129800;27;42981;-80
2022/04/06 13:57:00;;;;;;;;;;;19.10;45.90;;;;;;5125144;27;43080;-80
2022/04/06 13:59:26;;;;;;;;;;;18.90;45.70;;;;;;5126300;27;42927;-80
2022/04/06 14:01:51;;;;;;;;;;;19.10;46.20;;;;;;5125830;27;43327;-81
2022/04/06 14:04:17;;;;;;;;;;;19.10;46.00;;;;;;5126656;27;43059;-82
2022/04/06 14:06:43;;;;;;;;;;;19.10;45.70;;;;;;5128772;27;43027;-81
2022/04/06 14:09:09;;;;;;;;;;;21.10;47.00;;;;;;5127953;27;43081;-79
2022/04/06 14:11:35;;;;;;;;;;;19.20;45.70;;;;;;5118001;27;43612;-82
2022/04/06 14:14:01;;;;;;;;;;;19.10;45.70;;;;;;5125603;27;43037;-84
2022/04/06 14:16:28;;;;;;;;;;;19.20;45.90;;;;;;5123332;27;44107;-82
2022/04/06 14:18:55;;;;;;;;;;;19.10;45.70;;;;;;5126721;27;42974;-80
2022/04/06 14:21:24;;;;;;;;;;;19.10;45.70;;;;;;5127986;27;43027;-82
2022/04/06 14:23:50;;;;;;;;;;;19.10;45.70;;;;;;5117135;27;43043;-82
2022/04/06 14:26:16;;;;;;;;;;;19.20;45.80;;;;;;5115480;27;43471;-79
2022/04/06 14:28:42;;;;;;;;;;;19.10;46.00;;;;;;5116505;27;43197;-81
2022/04/06 14:31:07;;;;;;;;;;;19.20;46.20;;;;;;5116887;27;44446;-78
2022/04/06 14:33:33;;;;;;;;;;;19.10;46.00;;;;;;5127076;27;42856;-81